sensor_id;sensor_type;location;lat;lon;timestamp;P1;durP1;ratioP1;P2;durP2;ratioP2
70985;SDS011;58645;43.068;25.610;2023-02-01T00:00:01;7.13;;;3.28;;
70985;SDS011;58645;43.068;25.610;2023-02-01T00:02:27;7.63;;;3.47;;
70985;SDS011;58645;43.068;25.610;2023-02-01T00:04:52;6.85;;;3.92;;
70985;SDS011;58645;43.068;25.610;2023-02-01T00:07:18;7.75;;;3.17;;
70985;SDS011;58645;43.068;25.610;2023-02-01T00:09:44;7.57;;;3.90;;
70985;SDS011;58645;43.068;25.610;2023-02-01T00:12:09;6.70;;;4.07;;
70985;SDS011;58645;43.068;25.610;2023-02-01T00:14:35;6.15;;;3.95;;
70985;SDS011;58645;43.068;25.610;2023-02-01T00:17:06;7.63;;;3.63;;
70985;SDS011;58645;43.068;25.610;2023-02-01T00:19:33;6.90;;;3.58;;
70985;SDS011;58645;43.068;25.610;2023-02-01T00:21:59;6.93;;;3.65;;
70985;SDS011;58645;43.068;25.610;2023-02-01T00:24:25;7.75;;;3.70;;
70985;SDS011;58645;43.068;25.610;2023-02-01T00:26:50;9.18;;;4.18;;
70985;SDS011;58645;43.068;25.610;2023-02-01T00:29:17;7.10;;;3.38;;
70985;SDS011;58645;43.068;25.610;2023-02-01T00:31:45;7.00;;;3.55;;
70985;SDS011;58645;43.068;25.610;2023-02-01T00:34:13;7.75;;;3.53;;
70985;SDS011;58645;43.068;25.610;2023-02-01T00:36:40;7.03;;;3.30;;
70985;SDS011;58645;43.068;25.610;2023-02-01T00:39:07;6.68;;;3.53;;
70985;SDS011;58645;43.068;25.610;2023-02-01T00:41:33;7.35;;;3.67;;
70985;SDS011;58645;43.068;25.610;2023-02-01T00:43:58;7.18;;;3.25;;
70985;SDS011;58645;43.068;25.610;2023-02-01T00:46:24;6.75;;;3.28;;
70985;SDS011;58645;43.068;25.610;2023-02-01T00:48:50;8.93;;;3.38;;
70985;SDS011;58645;43.068;25.610;2023-02-01T00:51:20;7.78;;;3.28;;
70985;SDS011;58645;43.068;25.610;2023-02-01T00:53:47;5.88;;;2.85;;
70985;SDS011;58645;43.068;25.610;2023-02-01T00:56:14;5.95;;;3.50;;
70985;SDS011;58645;43.068;25.610;2023-02-01T00:58:39;5.53;;;3.33;;
70985;SDS011;58645;43.068;25.610;2023-02-01T01:01:07;7.75;;;3.58;;
70985;SDS011;58645;43.068;25.610;2023-02-01T01:03:39;6.32;;;2.83;;
70985;SDS011;58645;43.068;25.610;2023-02-01T01:06:09;8.43;;;2.97;;
70985;SDS011;58645;43.068;25.610;2023-02-01T01:08:36;6.70;;;2.72;;
70985;SDS011;58645;43.068;25.610;2023-02-01T01:11:06;4.50;;;3.08;;
70985;SDS011;58645;43.068;25.610;2023-02-01T01:13:37;6.20;;;2.78;;
70985;SDS011;58645;43.068;25.610;2023-02-01T01:16:04;6.32;;;2.75;;
70985;SDS011;58645;43.068;25.610;2023-02-01T01:18:31;6.22;;;2.95;;
70985;SDS011;58645;43.068;25.610;2023-02-01T01:23:24;6.45;;;3.15;;
70985;SDS011;58645;43.068;25.610;2023-02-01T01:25:50;6.35;;;2.67;;
70985;SDS011;58645;43.068;25.610;2023-02-01T01:28:16;9.48;;;3.55;;
70985;SDS011;58645;43.068;25.610;2023-02-01T01:30:42;4.30;;;2.42;;
70985;SDS011;58645;43.068;25.610;2023-02-01T01:33:08;5.43;;;2.75;;
70985;SDS011;58645;43.068;25.610;2023-02-01T01:35:34;4.45;;;2.88;;
70985;SDS011;58645;43.068;25.610;2023-02-01T01:38:00;6.15;;;2.85;;
70985;SDS011;58645;43.068;25.610;2023-02-01T01:40:26;4.75;;;2.75;;
70985;SDS011;58645;43.068;25.610;2023-02-01T01:42:53;9.00;;;3.03;;
70985;SDS011;58645;43.068;25.610;2023-02-01T01:45:25;6.07;;;2.53;;
70985;SDS011;58645;43.068;25.610;2023-02-01T01:47:55;4.90;;;2.67;;
70985;SDS011;58645;43.068;25.610;2023-02-01T01:50:49;4.78;;;2.58;;
70985;SDS011;58645;43.068;25.610;2023-02-01T01:53:25;4.18;;;2.55;;
70985;SDS011;58645;43.068;25.610;2023-02-01T01:55:55;5.78;;;2.80;;
70985;SDS011;58645;43.068;25.610;2023-02-01T01:58:22;5.30;;;3.10;;
70985;SDS011;58645;43.068;25.610;2023-02-01T02:00:51;4.80;;;2.60;;
70985;SDS011;58645;43.068;25.610;2023-02-01T02:06:05;4.07;;;2.28;;
70985;SDS011;58645;43.068;25.610;2023-02-01T02:08:39;7.18;;;2.60;;
70985;SDS011;58645;43.068;25.610;2023-02-01T02:11:04;5.32;;;2.60;;
70985;SDS011;58645;43.068;25.610;2023-02-01T02:13:38;8.02;;;2.85;;
70985;SDS011;58645;43.068;25.610;2023-02-01T02:18:41;4.95;;;2.70;;
70985;SDS011;58645;43.068;25.610;2023-02-01T02:27:03;3.83;;;2.03;;
70985;SDS011;58645;43.068;25.610;2023-02-01T02:30:35;5.15;;;2.45;;
70985;SDS011;58645;43.068;25.610;2023-02-01T02:35:43;5.18;;;2.50;;
70985;SDS011;58645;43.068;25.610;2023-02-01T02:53:04;4.18;;;2.47;;
70985;SDS011;58645;43.068;25.610;2023-02-01T02:55:59;2.58;;;1.42;;
70985;SDS011;58645;43.068;25.610;2023-02-01T02:58:48;5.85;;;2.03;;
70985;SDS011;58645;43.068;25.610;2023-02-01T03:01:33;4.53;;;1.70;;
70985;SDS011;58645;43.068;25.610;2023-02-01T03:04:17;6.35;;;2.45;;
70985;SDS011;58645;43.068;25.610;2023-02-01T03:09:19;4.15;;;1.75;;
70985;SDS011;58645;43.068;25.610;2023-02-01T03:11:58;3.90;;;1.55;;
70985;SDS011;58645;43.068;25.610;2023-02-01T03:14:46;4.30;;;1.83;;
70985;SDS011;58645;43.068;25.610;2023-02-01T03:17:17;5.45;;;1.90;;
70985;SDS011;58645;43.068;25.610;2023-02-01T03:19:49;6.93;;;2.33;;
70985;SDS011;58645;43.068;25.610;2023-02-01T03:22:20;6.70;;;1.73;;
70985;SDS011;58645;43.068;25.610;2023-02-01T03:24:59;7.60;;;2.65;;
70985;SDS011;58645;43.068;25.610;2023-02-01T03:30:21;4.03;;;2.13;;
70985;SDS011;58645;43.068;25.610;2023-02-01T03:33:00;6.93;;;2.80;;
70985;SDS011;58645;43.068;25.610;2023-02-01T03:41:11;3.08;;;1.83;;
70985;SDS011;58645;43.068;25.610;2023-02-01T03:44:01;4.90;;;3.13;;
70985;SDS011;58645;43.068;25.610;2023-02-01T03:46:46;6.38;;;2.63;;
70985;SDS011;58645;43.068;25.610;2023-02-01T03:49:35;6.20;;;3.08;;
70985;SDS011;58645;43.068;25.610;2023-02-01T03:52:04;6.60;;;2.80;;
70985;SDS011;58645;43.068;25.610;2023-02-01T03:54:32;5.70;;;2.92;;
70985;SDS011;58645;43.068;25.610;2023-02-01T03:57:00;6.25;;;2.80;;
70985;SDS011;58645;43.068;25.610;2023-02-01T03:59:30;4.05;;;2.72;;
70985;SDS011;58645;43.068;25.610;2023-02-01T04:01:55;5.07;;;2.28;;
70985;SDS011;58645;43.068;25.610;2023-02-01T04:04:21;5.63;;;2.55;;
70985;SDS011;58645;43.068;25.610;2023-02-01T04:06:47;4.80;;;2.55;;
70985;SDS011;58645;43.068;25.610;2023-02-01T04:09:13;7.07;;;2.42;;
70985;SDS011;58645;43.068;25.610;2023-02-01T04:11:39;5.35;;;2.40;;
70985;SDS011;58645;43.068;25.610;2023-02-01T04:14:05;8.77;;;3.00;;
70985;SDS011;58645;43.068;25.610;2023-02-01T04:16:31;6.43;;;2.83;;
70985;SDS011;58645;43.068;25.610;2023-02-01T04:18:57;8.35;;;2.70;;
70985;SDS011;58645;43.068;25.610;2023-02-01T04:21:24;5.95;;;3.10;;
70985;SDS011;58645;43.068;25.610;2023-02-01T04:23:51;6.80;;;2.53;;
70985;SDS011;58645;43.068;25.610;2023-02-01T04:26:16;5.43;;;3.50;;
70985;SDS011;58645;43.068;25.610;2023-02-01T04:28:43;7.22;;;2.55;;
70985;SDS011;58645;43.068;25.610;2023-02-01T04:31:12;6.50;;;3.33;;
70985;SDS011;58645;43.068;25.610;2023-02-01T04:33:39;7.28;;;2.75;;
70985;SDS011;58645;43.068;25.610;2023-02-01T04:36:05;7.20;;;3.35;;
70985;SDS011;58645;43.068;25.610;2023-02-01T04:38:31;6.60;;;3.40;;
70985;SDS011;58645;43.068;25.610;2023-02-01T04:40:57;6.15;;;3.28;;
70985;SDS011;58645;43.068;25.610;2023-02-01T04:43:24;7.28;;;3.35;;
70985;SDS011;58645;43.068;25.610;2023-02-01T04:45:50;6.40;;;3.17;;
70985;SDS011;58645;43.068;25.610;2023-02-01T04:48:16;5.45;;;3.22;;
70985;SDS011;58645;43.068;25.610;2023-02-01T04:50:44;7.60;;;3.58;;
70985;SDS011;58645;43.068;25.610;2023-02-01T04:53:16;6.82;;;3.25;;
70985;SDS011;58645;43.068;25.610;2023-02-01T04:55:42;7.65;;;3.70;;
70985;SDS011;58645;43.068;25.610;2023-02-01T04:58:09;4.90;;;3.15;;
70985;SDS011;58645;43.068;25.610;2023-02-01T05:00:35;6.35;;;3.03;;
70985;SDS011;58645;43.068;25.610;2023-02-01T05:03:02;8.00;;;3.45;;
70985;SDS011;58645;43.068;25.610;2023-02-01T05:05:28;6.63;;;3.55;;
70985;SDS011;58645;43.068;25.610;2023-02-01T05:07:54;6.57;;;2.97;;
70985;SDS011;58645;43.068;25.610;2023-02-01T05:10:20;9.80;;;4.25;;
70985;SDS011;58645;43.068;25.610;2023-02-01T05:12:46;8.25;;;3.97;;
70985;SDS011;58645;43.068;25.610;2023-02-01T05:15:30;14.23;;;5.45;;
70985;SDS011;58645;43.068;25.610;2023-02-01T05:17:57;10.48;;;4.80;;
70985;SDS011;58645;43.068;25.610;2023-02-01T05:20:23;10.57;;;4.15;;
70985;SDS011;58645;43.068;25.610;2023-02-01T05:22:49;8.90;;;4.00;;
70985;SDS011;58645;43.068;25.610;2023-02-01T05:25:15;8.73;;;3.78;;
70985;SDS011;58645;43.068;25.610;2023-02-01T05:27:41;5.55;;;2.88;;
70985;SDS011;58645;43.068;25.610;2023-02-01T05:30:07;6.32;;;3.58;;
70985;SDS011;58645;43.068;25.610;2023-02-01T05:32:34;6.45;;;3.20;;
70985;SDS011;58645;43.068;25.610;2023-02-01T05:35:00;5.03;;;3.05;;
70985;SDS011;58645;43.068;25.610;2023-02-01T05:37:26;7.93;;;3.58;;
70985;SDS011;58645;43.068;25.610;2023-02-01T05:39:51;6.32;;;3.47;;
70985;SDS011;58645;43.068;25.610;2023-02-01T05:42:17;5.68;;;3.42;;
70985;SDS011;58645;43.068;25.610;2023-02-01T05:44:43;6.70;;;3.40;;
70985;SDS011;58645;43.068;25.610;2023-02-01T05:47:09;7.10;;;3.58;;
70985;SDS011;58645;43.068;25.610;2023-02-01T05:49:35;7.47;;;3.72;;
70985;SDS011;58645;43.068;25.610;2023-02-01T05:52:01;10.85;;;3.75;;
70985;SDS011;58645;43.068;25.610;2023-02-01T05:54:26;9.02;;;4.45;;
70985;SDS011;58645;43.068;25.610;2023-02-01T05:56:52;13.60;;;6.85;;
70985;SDS011;58645;43.068;25.610;2023-02-01T05:59:21;14.10;;;6.38;;
70985;SDS011;58645;43.068;25.610;2023-02-01T06:01:47;17.83;;;7.00;;
70985;SDS011;58645;43.068;25.610;2023-02-01T06:04:13;16.58;;;8.32;;
70985;SDS011;58645;43.068;25.610;2023-02-01T06:06:38;13.23;;;6.65;;
70985;SDS011;58645;43.068;25.610;2023-02-01T06:09:04;15.70;;;7.88;;
70985;SDS011;58645;43.068;25.610;2023-02-01T06:11:30;13.57;;;7.40;;
70985;SDS011;58645;43.068;25.610;2023-02-01T06:13:56;22.95;;;9.70;;
70985;SDS011;58645;43.068;25.610;2023-02-01T06:16:22;13.90;;;7.15;;
70985;SDS011;58645;43.068;25.610;2023-02-01T06:18:48;14.00;;;6.05;;
70985;SDS011;58645;43.068;25.610;2023-02-01T06:21:14;17.52;;;7.85;;
70985;SDS011;58645;43.068;25.610;2023-02-01T06:23:48;26.20;;;10.60;;
70985;SDS011;58645;43.068;25.610;2023-02-01T06:26:18;23.63;;;9.55;;
70985;SDS011;58645;43.068;25.610;2023-02-01T06:28:44;21.05;;;8.10;;
70985;SDS011;58645;43.068;25.610;2023-02-01T06:31:10;16.90;;;8.48;;
70985;SDS011;58645;43.068;25.610;2023-02-01T06:33:37;15.57;;;7.63;;
70985;SDS011;58645;43.068;25.610;2023-02-01T06:36:04;12.80;;;5.88;;
70985;SDS011;58645;43.068;25.610;2023-02-01T06:38:31;8.82;;;4.60;;
70985;SDS011;58645;43.068;25.610;2023-02-01T06:41:00;8.40;;;4.88;;
70985;SDS011;58645;43.068;25.610;2023-02-01T06:43:27;7.40;;;4.53;;
70985;SDS011;58645;43.068;25.610;2023-02-01T06:45:53;8.30;;;4.82;;
70985;SDS011;58645;43.068;25.610;2023-02-01T06:48:24;6.93;;;4.03;;
70985;SDS011;58645;43.068;25.610;2023-02-01T06:50:50;7.65;;;3.67;;
70985;SDS011;58645;43.068;25.610;2023-02-01T06:53:15;6.45;;;4.38;;
70985;SDS011;58645;43.068;25.610;2023-02-01T06:55:41;9.70;;;4.65;;
70985;SDS011;58645;43.068;25.610;2023-02-01T06:58:15;8.63;;;5.35;;
70985;SDS011;58645;43.068;25.610;2023-02-01T07:00:41;10.85;;;6.22;;
70985;SDS011;58645;43.068;25.610;2023-02-01T07:03:07;10.32;;;5.85;;
70985;SDS011;58645;43.068;25.610;2023-02-01T07:05:32;8.90;;;4.68;;
70985;SDS011;58645;43.068;25.610;2023-02-01T07:07:58;8.57;;;5.10;;
70985;SDS011;58645;43.068;25.610;2023-02-01T07:10:24;10.20;;;6.13;;
70985;SDS011;58645;43.068;25.610;2023-02-01T07:12:50;6.38;;;4.22;;
70985;SDS011;58645;43.068;25.610;2023-02-01T07:15:15;6.47;;;4.03;;
70985;SDS011;58645;43.068;25.610;2023-02-01T07:17:41;7.50;;;4.28;;
70985;SDS011;58645;43.068;25.610;2023-02-01T07:20:07;5.32;;;3.33;;
70985;SDS011;58645;43.068;25.610;2023-02-01T07:22:33;6.13;;;3.28;;
70985;SDS011;58645;43.068;25.610;2023-02-01T07:24:59;5.05;;;3.00;;
70985;SDS011;58645;43.068;25.610;2023-02-01T07:27:25;5.03;;;2.90;;
70985;SDS011;58645;43.068;25.610;2023-02-01T07:29:50;7.78;;;3.72;;
70985;SDS011;58645;43.068;25.610;2023-02-01T07:32:17;5.50;;;3.22;;
70985;SDS011;58645;43.068;25.610;2023-02-01T07:34:43;5.55;;;3.08;;
70985;SDS011;58645;43.068;25.610;2023-02-01T07:37:09;7.85;;;3.75;;
70985;SDS011;58645;43.068;25.610;2023-02-01T07:39:35;9.10;;;4.50;;
70985;SDS011;58645;43.068;25.610;2023-02-01T07:42:01;9.23;;;4.57;;
70985;SDS011;58645;43.068;25.610;2023-02-01T07:44:26;7.95;;;3.70;;
70985;SDS011;58645;43.068;25.610;2023-02-01T07:46:52;6.55;;;3.58;;
70985;SDS011;58645;43.068;25.610;2023-02-01T07:49:18;9.18;;;3.80;;
70985;SDS011;58645;43.068;25.610;2023-02-01T07:51:43;5.07;;;2.72;;
70985;SDS011;58645;43.068;25.610;2023-02-01T07:54:09;7.47;;;3.42;;
70985;SDS011;58645;43.068;25.610;2023-02-01T07:56:35;5.82;;;3.08;;
70985;SDS011;58645;43.068;25.610;2023-02-01T07:59:01;6.00;;;3.90;;
70985;SDS011;58645;43.068;25.610;2023-02-01T08:01:27;8.27;;;3.78;;
70985;SDS011;58645;43.068;25.610;2023-02-01T08:03:58;6.47;;;3.67;;
70985;SDS011;58645;43.068;25.610;2023-02-01T08:06:28;8.32;;;2.95;;
70985;SDS011;58645;43.068;25.610;2023-02-01T08:08:56;3.38;;;2.33;;
70985;SDS011;58645;43.068;25.610;2023-02-01T08:11:22;6.25;;;2.47;;
70985;SDS011;58645;43.068;25.610;2023-02-01T08:13:49;4.03;;;2.35;;
70985;SDS011;58645;43.068;25.610;2023-02-01T08:16:15;6.53;;;3.35;;
70985;SDS011;58645;43.068;25.610;2023-02-01T08:18:42;5.60;;;2.90;;
70985;SDS011;58645;43.068;25.610;2023-02-01T08:21:09;3.67;;;2.47;;
70985;SDS011;58645;43.068;25.610;2023-02-01T08:23:37;5.25;;;2.28;;
70985;SDS011;58645;43.068;25.610;2023-02-01T08:26:05;7.18;;;2.58;;
70985;SDS011;58645;43.068;25.610;2023-02-01T08:28:36;4.90;;;2.53;;
70985;SDS011;58645;43.068;25.610;2023-02-01T08:31:04;5.00;;;2.75;;
70985;SDS011;58645;43.068;25.610;2023-02-01T08:33:30;6.47;;;4.00;;
70985;SDS011;58645;43.068;25.610;2023-02-01T08:35:56;4.55;;;2.30;;
70985;SDS011;58645;43.068;25.610;2023-02-01T08:38:22;4.40;;;2.72;;
70985;SDS011;58645;43.068;25.610;2023-02-01T08:40:48;4.32;;;2.35;;
70985;SDS011;58645;43.068;25.610;2023-02-01T08:43:13;7.70;;;3.05;;
70985;SDS011;58645;43.068;25.610;2023-02-01T08:45:39;4.93;;;3.03;;
70985;SDS011;58645;43.068;25.610;2023-02-01T08:48:05;5.05;;;2.33;;
70985;SDS011;58645;43.068;25.610;2023-02-01T08:50:31;6.22;;;2.58;;
70985;SDS011;58645;43.068;25.610;2023-02-01T08:52:56;4.03;;;2.90;;
70985;SDS011;58645;43.068;25.610;2023-02-01T08:55:22;4.93;;;2.85;;
70985;SDS011;58645;43.068;25.610;2023-02-01T08:57:48;3.92;;;2.22;;
70985;SDS011;58645;43.068;25.610;2023-02-01T09:00:15;5.35;;;2.08;;
70985;SDS011;58645;43.068;25.610;2023-02-01T09:02:42;5.40;;;2.25;;
70985;SDS011;58645;43.068;25.610;2023-02-01T09:05:08;3.30;;;2.05;;
70985;SDS011;58645;43.068;25.610;2023-02-01T09:07:35;5.10;;;2.70;;
70985;SDS011;58645;43.068;25.610;2023-02-01T09:10:02;6.90;;;3.05;;
70985;SDS011;58645;43.068;25.610;2023-02-01T09:12:29;3.67;;;2.63;;
70985;SDS011;58645;43.068;25.610;2023-02-01T09:14:56;6.30;;;2.60;;
70985;SDS011;58645;43.068;25.610;2023-02-01T09:17:24;7.15;;;2.75;;
70985;SDS011;58645;43.068;25.610;2023-02-01T09:19:54;6.47;;;2.25;;
70985;SDS011;58645;43.068;25.610;2023-02-01T09:22:20;4.78;;;2.35;;
70985;SDS011;58645;43.068;25.610;2023-02-01T09:24:46;4.72;;;2.35;;
70985;SDS011;58645;43.068;25.610;2023-02-01T09:27:12;3.33;;;1.92;;
70985;SDS011;58645;43.068;25.610;2023-02-01T09:29:37;5.32;;;2.13;;
70985;SDS011;58645;43.068;25.610;2023-02-01T09:32:03;4.75;;;1.98;;
70985;SDS011;58645;43.068;25.610;2023-02-01T09:34:30;3.95;;;2.20;;
70985;SDS011;58645;43.068;25.610;2023-02-01T09:36:56;4.72;;;2.17;;
70985;SDS011;58645;43.068;25.610;2023-02-01T09:39:21;4.43;;;2.58;;
70985;SDS011;58645;43.068;25.610;2023-02-01T09:41:53;4.85;;;3.20;;
70985;SDS011;58645;43.068;25.610;2023-02-01T09:46:57;5.60;;;2.78;;
70985;SDS011;58645;43.068;25.610;2023-02-01T09:49:34;4.90;;;3.08;;
70985;SDS011;58645;43.068;25.610;2023-02-01T09:52:07;6.45;;;3.47;;
70985;SDS011;58645;43.068;25.610;2023-02-01T09:54:40;5.40;;;2.63;;
70985;SDS011;58645;43.068;25.610;2023-02-01T09:57:16;3.95;;;2.60;;
70985;SDS011;58645;43.068;25.610;2023-02-01T09:59:49;5.80;;;2.55;;
70985;SDS011;58645;43.068;25.610;2023-02-01T10:02:26;4.43;;;3.25;;
70985;SDS011;58645;43.068;25.610;2023-02-01T10:04:57;3.75;;;2.13;;
70985;SDS011;58645;43.068;25.610;2023-02-01T10:10:17;3.80;;;2.70;;
70985;SDS011;58645;43.068;25.610;2023-02-01T10:27:02;4.30;;;2.25;;
70985;SDS011;58645;43.068;25.610;2023-02-01T10:29:36;3.88;;;2.17;;
70985;SDS011;58645;43.068;25.610;2023-02-01T10:32:09;4.68;;;2.90;;
70985;SDS011;58645;43.068;25.610;2023-02-01T10:34:41;5.80;;;2.22;;
70985;SDS011;58645;43.068;25.610;2023-02-01T10:39:48;3.80;;;2.20;;
70985;SDS011;58645;43.068;25.610;2023-02-01T10:42:15;3.42;;;2.42;;
70985;SDS011;58645;43.068;25.610;2023-02-01T10:44:45;2.95;;;1.50;;
70985;SDS011;58645;43.068;25.610;2023-02-01T10:47:13;4.38;;;2.35;;
70985;SDS011;58645;43.068;25.610;2023-02-01T10:49:46;2.92;;;1.60;;
70985;SDS011;58645;43.068;25.610;2023-02-01T10:52:21;4.63;;;2.10;;
70985;SDS011;58645;43.068;25.610;2023-02-01T10:55:25;3.00;;;1.70;;
70985;SDS011;58645;43.068;25.610;2023-02-01T10:58:03;3.08;;;1.67;;
70985;SDS011;58645;43.068;25.610;2023-02-01T11:00:36;3.95;;;2.15;;
70985;SDS011;58645;43.068;25.610;2023-02-01T11:05:56;3.05;;;1.50;;
70985;SDS011;58645;43.068;25.610;2023-02-01T11:08:22;5.10;;;2.30;;
70985;SDS011;58645;43.068;25.610;2023-02-01T11:10:49;4.03;;;2.30;;
70985;SDS011;58645;43.068;25.610;2023-02-01T11:13:33;4.65;;;2.65;;
70985;SDS011;58645;43.068;25.610;2023-02-01T11:16:04;5.10;;;2.67;;
70985;SDS011;58645;43.068;25.610;2023-02-01T11:18:31;4.40;;;3.08;;
70985;SDS011;58645;43.068;25.610;2023-02-01T11:21:00;6.18;;;2.95;;
70985;SDS011;58645;43.068;25.610;2023-02-01T11:23:28;5.28;;;2.90;;
70985;SDS011;58645;43.068;25.610;2023-02-01T11:26:11;4.57;;;2.30;;
70985;SDS011;58645;43.068;25.610;2023-02-01T11:28:42;4.95;;;2.90;;
70985;SDS011;58645;43.068;25.610;2023-02-01T11:31:15;5.20;;;2.30;;
70985;SDS011;58645;43.068;25.610;2023-02-01T11:33:43;6.60;;;3.53;;
70985;SDS011;58645;43.068;25.610;2023-02-01T11:36:17;3.20;;;2.13;;
70985;SDS011;58645;43.068;25.610;2023-02-01T11:38:53;5.00;;;2.38;;
70985;SDS011;58645;43.068;25.610;2023-02-01T11:41:41;5.82;;;2.20;;
70985;SDS011;58645;43.068;25.610;2023-02-01T11:44:30;3.47;;;2.10;;
70985;SDS011;58645;43.068;25.610;2023-02-01T11:47:20;2.17;;;1.67;;
70985;SDS011;58645;43.068;25.610;2023-02-01T11:49:52;4.95;;;2.28;;
70985;SDS011;58645;43.068;25.610;2023-02-01T11:58:12;4.57;;;2.53;;
70985;SDS011;58645;43.068;25.610;2023-02-01T12:06:18;2.30;;;1.70;;
70985;SDS011;58645;43.068;25.610;2023-02-01T12:09:09;3.05;;;1.30;;
70985;SDS011;58645;43.068;25.610;2023-02-01T12:33:54;3.13;;;1.90;;
70985;SDS011;58645;43.068;25.610;2023-02-01T12:39:40;4.13;;;1.83;;
70985;SDS011;58645;43.068;25.610;2023-02-01T12:42:26;3.42;;;1.60;;
70985;SDS011;58645;43.068;25.610;2023-02-01T12:47:51;3.80;;;1.50;;
70985;SDS011;58645;43.068;25.610;2023-02-01T12:52:52;3.10;;;1.35;;
70985;SDS011;58645;43.068;25.610;2023-02-01T12:55:25;2.88;;;1.88;;
70985;SDS011;58645;43.068;25.610;2023-02-01T12:57:58;6.50;;;1.58;;
70985;SDS011;58645;43.068;25.610;2023-02-01T13:00:41;4.28;;;1.77;;
70985;SDS011;58645;43.068;25.610;2023-02-01T13:06:07;4.22;;;2.78;;
70985;SDS011;58645;43.068;25.610;2023-02-01T13:09:04;2.97;;;1.38;;
70985;SDS011;58645;43.068;25.610;2023-02-01T13:11:48;5.45;;;1.40;;
70985;SDS011;58645;43.068;25.610;2023-02-01T13:16:49;5.53;;;1.83;;
70985;SDS011;58645;43.068;25.610;2023-02-01T13:19:28;3.17;;;1.60;;
70985;SDS011;58645;43.068;25.610;2023-02-01T13:22:05;4.50;;;2.05;;
70985;SDS011;58645;43.068;25.610;2023-02-01T13:25:40;4.63;;;1.42;;
70985;SDS011;58645;43.068;25.610;2023-02-01T13:27:35;3.17;;;1.90;;
70985;SDS011;58645;43.068;25.610;2023-02-01T13:30:18;6.72;;;1.63;;
70985;SDS011;58645;43.068;25.610;2023-02-01T13:35:55;4.22;;;2.75;;
70985;SDS011;58645;43.068;25.610;2023-02-01T13:41:27;3.13;;;1.80;;
70985;SDS011;58645;43.068;25.610;2023-02-01T13:43:57;3.30;;;1.77;;
70985;SDS011;58645;43.068;25.610;2023-02-01T13:46:26;3.95;;;1.63;;
70985;SDS011;58645;43.068;25.610;2023-02-01T13:48:59;2.53;;;1.73;;
70985;SDS011;58645;43.068;25.610;2023-02-01T13:51:40;3.08;;;1.58;;
70985;SDS011;58645;43.068;25.610;2023-02-01T13:54:22;5.32;;;1.80;;
70985;SDS011;58645;43.068;25.610;2023-02-01T13:56:54;5.50;;;2.25;;
70985;SDS011;58645;43.068;25.610;2023-02-01T14:05:08;3.67;;;1.77;;
70985;SDS011;58645;43.068;25.610;2023-02-01T14:07:35;3.53;;;1.92;;
70985;SDS011;58645;43.068;25.610;2023-02-01T14:13:12;5.50;;;1.77;;
70985;SDS011;58645;43.068;25.610;2023-02-01T14:23:56;6.72;;;3.22;;
70985;SDS011;58645;43.068;25.610;2023-02-01T14:37:08;3.33;;;1.40;;
70985;SDS011;58645;43.068;25.610;2023-02-01T14:55:57;3.20;;;1.80;;
70985;SDS011;58645;43.068;25.610;2023-02-01T14:58:46;3.08;;;1.60;;
70985;SDS011;58645;43.068;25.610;2023-02-01T15:01:48;5.68;;;2.40;;
70985;SDS011;58645;43.068;25.610;2023-02-01T15:04:18;3.95;;;1.60;;
70985;SDS011;58645;43.068;25.610;2023-02-01T15:09:36;5.20;;;2.63;;
70985;SDS011;58645;43.068;25.610;2023-02-01T15:14:37;13.25;;;2.83;;
70985;SDS011;58645;43.068;25.610;2023-02-01T15:17:20;6.63;;;3.08;;
70985;SDS011;58645;43.068;25.610;2023-02-01T15:20:00;5.40;;;2.35;;
70985;SDS011;58645;43.068;25.610;2023-02-01T15:25:34;3.53;;;2.00;;
70985;SDS011;58645;43.068;25.610;2023-02-01T15:28:03;5.90;;;2.80;;
70985;SDS011;58645;43.068;25.610;2023-02-01T15:30:32;6.30;;;2.63;;
70985;SDS011;58645;43.068;25.610;2023-02-01T15:35:41;7.57;;;2.97;;
70985;SDS011;58645;43.068;25.610;2023-02-01T15:41:23;6.53;;;3.38;;
70985;SDS011;58645;43.068;25.610;2023-02-01T15:46:39;6.80;;;3.55;;
70985;SDS011;58645;43.068;25.610;2023-02-01T15:49:21;7.28;;;4.00;;
70985;SDS011;58645;43.068;25.610;2023-02-01T15:51:49;8.80;;;4.00;;
70985;SDS011;58645;43.068;25.610;2023-02-01T15:57:09;8.23;;;4.53;;
70985;SDS011;58645;43.068;25.610;2023-02-01T15:59:37;10.27;;;5.18;;
70985;SDS011;58645;43.068;25.610;2023-02-01T16:02:25;8.30;;;4.22;;
70985;SDS011;58645;43.068;25.610;2023-02-01T16:04:59;37.13;;;10.13;;
70985;SDS011;58645;43.068;25.610;2023-02-01T16:07:30;17.92;;;7.28;;
70985;SDS011;58645;43.068;25.610;2023-02-01T16:09:58;19.45;;;9.57;;
70985;SDS011;58645;43.068;25.610;2023-02-01T16:12:45;15.65;;;8.52;;
70985;SDS011;58645;43.068;25.610;2023-02-01T16:15:12;16.55;;;9.02;;
70985;SDS011;58645;43.068;25.610;2023-02-01T16:17:37;13.98;;;7.88;;
70985;SDS011;58645;43.068;25.610;2023-02-01T16:20:03;14.20;;;7.43;;
70985;SDS011;58645;43.068;25.610;2023-02-01T16:22:30;17.02;;;8.40;;
70985;SDS011;58645;43.068;25.610;2023-02-01T16:24:55;15.98;;;9.15;;
70985;SDS011;58645;43.068;25.610;2023-02-01T16:27:22;17.48;;;8.27;;
70985;SDS011;58645;43.068;25.610;2023-02-01T16:29:48;15.23;;;8.05;;
70985;SDS011;58645;43.068;25.610;2023-02-01T16:32:19;14.38;;;7.95;;
70985;SDS011;58645;43.068;25.610;2023-02-01T16:34:46;17.40;;;9.20;;
70985;SDS011;58645;43.068;25.610;2023-02-01T16:37:13;18.52;;;10.43;;
70985;SDS011;58645;43.068;25.610;2023-02-01T16:39:43;21.20;;;9.68;;
70985;SDS011;58645;43.068;25.610;2023-02-01T16:42:13;21.02;;;10.85;;
70985;SDS011;58645;43.068;25.610;2023-02-01T16:44:40;34.33;;;17.20;;
70985;SDS011;58645;43.068;25.610;2023-02-01T16:47:11;31.75;;;16.02;;
70985;SDS011;58645;43.068;25.610;2023-02-01T16:49:44;26.27;;;14.60;;
70985;SDS011;58645;43.068;25.610;2023-02-01T16:52:18;21.77;;;11.23;;
70985;SDS011;58645;43.068;25.610;2023-02-01T16:54:46;19.48;;;10.50;;
70985;SDS011;58645;43.068;25.610;2023-02-01T16:57:16;19.63;;;10.48;;
70985;SDS011;58645;43.068;25.610;2023-02-01T16:59:44;16.35;;;9.85;;
70985;SDS011;58645;43.068;25.610;2023-02-01T17:02:11;13.32;;;7.85;;
70985;SDS011;58645;43.068;25.610;2023-02-01T17:04:38;16.23;;;9.07;;
70985;SDS011;58645;43.068;25.610;2023-02-01T17:07:04;17.50;;;10.20;;
70985;SDS011;58645;43.068;25.610;2023-02-01T17:09:37;20.10;;;10.50;;
70985;SDS011;58645;43.068;25.610;2023-02-01T17:12:04;21.20;;;10.93;;
70985;SDS011;58645;43.068;25.610;2023-02-01T17:14:31;23.63;;;12.27;;
70985;SDS011;58645;43.068;25.610;2023-02-01T17:17:01;12.02;;;6.63;;
70985;SDS011;58645;43.068;25.610;2023-02-01T17:19:27;15.15;;;8.05;;
70985;SDS011;58645;43.068;25.610;2023-02-01T17:21:54;16.25;;;8.75;;
70985;SDS011;58645;43.068;25.610;2023-02-01T17:24:27;15.82;;;8.02;;
70985;SDS011;58645;43.068;25.610;2023-02-01T17:26:55;13.70;;;7.32;;
70985;SDS011;58645;43.068;25.610;2023-02-01T17:29:21;13.82;;;7.13;;
70985;SDS011;58645;43.068;25.610;2023-02-01T17:31:48;12.65;;;5.40;;
70985;SDS011;58645;43.068;25.610;2023-02-01T17:34:16;12.40;;;5.10;;
70985;SDS011;58645;43.068;25.610;2023-02-01T17:36:44;12.45;;;6.18;;
70985;SDS011;58645;43.068;25.610;2023-02-01T17:39:11;10.52;;;5.22;;
70985;SDS011;58645;43.068;25.610;2023-02-01T17:41:57;16.08;;;7.13;;
70985;SDS011;58645;43.068;25.610;2023-02-01T17:44:23;18.52;;;8.95;;
70985;SDS011;58645;43.068;25.610;2023-02-01T17:46:49;23.63;;;12.10;;
70985;SDS011;58645;43.068;25.610;2023-02-01T17:49:15;35.63;;;16.02;;
70985;SDS011;58645;43.068;25.610;2023-02-01T17:51:41;35.03;;;16.13;;